createdAt,value
2018-09-26T00:01:18.090Z,55.30
2018-09-26T00:03:55.756Z,55.20
2018-09-26T00:06:26.505Z,55.50
2018-09-26T00:08:57.265Z,55.40
2018-09-26T00:11:28.202Z,55.30
2018-09-26T00:13:59.716Z,55.40
2018-09-26T00:16:30.887Z,55.30
2018-09-26T00:19:02.561Z,55.30
2018-09-26T00:21:33.400Z,55.40
2018-09-26T00:24:04.431Z,55.50
2018-09-26T00:26:36.699Z,55.50
2018-09-26T00:29:07.652Z,55.40
2018-09-26T00:31:38.827Z,55.30
2018-09-26T00:34:09.648Z,55.30
2018-09-26T00:36:40.616Z,55.40
2018-09-26T00:39:11.424Z,55.50
2018-09-26T00:41:42.408Z,55.40
2018-09-26T00:44:14.016Z,55.30
2018-09-26T00:46:44.819Z,55.40
2018-09-26T00:49:16.143Z,55.40
2018-09-26T00:51:47.734Z,55.50
2018-09-26T00:54:18.966Z,55.60
2018-09-26T00:56:50.540Z,55.40
2018-09-26T00:59:21.631Z,55.60
2018-09-26T01:01:52.290Z,55.40
2018-09-26T01:04:23.739Z,55.50
2018-09-26T01:06:54.694Z,55.50
2018-09-26T01:09:26.059Z,55.70
2018-09-26T01:11:57.070Z,55.80
2018-09-26T01:14:28.129Z,55.80
2018-09-26T01:16:58.900Z,55.60
2018-09-26T01:19:29.654Z,55.80
2018-09-26T01:22:00.809Z,55.90
2018-09-26T01:24:31.519Z,56.00
2018-09-26T01:27:02.492Z,55.90
2018-09-26T01:29:33.553Z,56.00
2018-09-26T01:32:05.858Z,56.00
2018-09-26T01:34:36.857Z,55.80
2018-09-26T01:37:07.565Z,55.90
2018-09-26T01:39:38.937Z,56.00
2018-09-26T01:42:10.457Z,56.00
2018-09-26T01:44:41.550Z,56.00
2018-09-26T01:47:12.476Z,56.00
2018-09-26T01:49:43.774Z,56.00
2018-09-26T01:52:15.039Z,56.00
2018-09-26T01:54:45.775Z,56.00
2018-09-26T01:57:17.142Z,56.10
2018-09-26T01:59:47.931Z,56.00
2018-09-26T02:02:18.808Z,55.90
2018-09-26T02:04:51.554Z,56.00
2018-09-26T02:07:22.733Z,56.00
2018-09-26T02:09:54.088Z,55.90
2018-09-26T02:12:25.102Z,55.90
2018-09-26T02:14:56.174Z,56.00
2018-09-26T02:17:26.851Z,56.10
2018-09-26T02:19:58.557Z,56.10
2018-09-26T02:22:29.631Z,56.10
2018-09-26T02:25:00.717Z,56.20
2018-09-26T02:27:31.642Z,56.50
2018-09-26T02:30:02.756Z,56.40
2018-09-26T02:32:33.903Z,56.40
2018-09-26T02:35:04.724Z,56.30
2018-09-26T02:37:35.610Z,56.40
2018-09-26T02:40:06.391Z,56.40
2018-09-26T02:42:37.235Z,56.30
2018-09-26T02:45:08.479Z,56.40
2018-09-26T02:47:39.247Z,56.50
2018-09-26T02:50:10.866Z,56.40
2018-09-26T02:52:41.996Z,56.60
2018-09-26T02:55:12.699Z,56.60
2018-09-26T02:57:43.506Z,56.50
2018-09-26T03:00:14.964Z,56.70
2018-09-26T03:02:45.977Z,56.60
2018-09-26T03:05:18.024Z,56.60
2018-09-26T03:07:49.310Z,56.60
2018-09-26T03:10:20.504Z,56.50
2018-09-26T03:12:51.575Z,56.80
2018-09-26T03:15:22.408Z,56.80
2018-09-26T03:17:55.734Z,56.80
2018-09-26T03:20:26.541Z,56.60
2018-09-26T03:22:57.309Z,56.60
2018-09-26T03:25:28.521Z,56.60
2018-09-26T03:27:59.833Z,56.70
2018-09-26T03:30:31.663Z,56.60
2018-09-26T03:33:02.451Z,56.60
2018-09-26T03:35:33.307Z,56.60
2018-09-26T03:38:04.122Z,56.70
2018-09-26T03:40:34.945Z,56.50
2018-09-26T03:43:06.470Z,56.60
2018-09-26T03:45:37.484Z,56.70
2018-09-26T03:48:08.219Z,56.80
2018-09-26T03:50:39.723Z,56.80
2018-09-26T03:53:10.446Z,56.90
2018-09-26T03:55:42.317Z,56.80
2018-09-26T03:58:13.054Z,56.80
2018-09-26T04:00:43.907Z,56.70
2018-09-26T04:03:16.050Z,56.90
2018-09-26T04:05:46.844Z,56.90
2018-09-26T04:08:18.306Z,57.00
2018-09-26T04:10:49.112Z,57.00
2018-09-26T04:13:20.874Z,57.10
2018-09-26T04:15:53.915Z,57.70
2018-09-26T04:18:25.894Z,57.40
2018-09-26T04:20:57.153Z,57.30
2018-09-26T04:23:28.289Z,57.30
2018-09-26T04:26:00.984Z,58.00
2018-09-26T04:28:33.320Z,57.10
2018-09-26T04:31:05.389Z,57.20
2018-09-26T04:33:37.059Z,57.10
2018-09-26T04:36:08.456Z,57.20
2018-09-26T04:38:40.896Z,57.10
2018-09-26T04:41:11.867Z,57.10
2018-09-26T04:43:43.461Z,57.10
2018-09-26T04:46:14.686Z,57.30
2018-09-26T04:48:45.606Z,58.20
2018-09-26T04:51:17.887Z,57.10
2018-09-26T04:53:50.599Z,57.30
2018-09-26T04:56:21.556Z,57.40
2018-09-26T04:59:10.659Z,57.80
2018-09-26T05:01:46.919Z,57.20
2018-09-26T05:04:19.832Z,57.00
2018-09-26T05:06:59.363Z,57.00
2018-09-26T05:09:30.676Z,57.10
2018-09-26T05:12:01.794Z,56.90
2018-09-26T05:14:33.089Z,57.00
2018-09-26T05:17:04.132Z,57.00
2018-09-26T05:19:34.923Z,57.10
2018-09-26T05:22:05.962Z,57.10
2018-09-26T05:24:37.173Z,57.10
2018-09-26T05:27:09.053Z,56.90
2018-09-26T05:29:40.944Z,57.00
2018-09-26T05:32:12.466Z,56.90
2018-09-26T05:34:43.567Z,57.10
2018-09-26T05:37:15.119Z,57.20
2018-09-26T05:39:47.268Z,57.30
2018-09-26T05:42:18.336Z,57.20
2018-09-26T05:44:49.396Z,57.00
2018-09-26T05:47:21.138Z,57.20
2018-09-26T05:49:52.178Z,57.60
2018-09-26T05:52:23.017Z,57.40
2018-09-26T05:54:54.161Z,57.40
2018-09-26T05:57:25.950Z,57.50
2018-09-26T05:59:56.861Z,57.80
2018-09-26T06:02:28.595Z,57.50
2018-09-26T06:04:59.296Z,57.50
2018-09-26T06:07:30.285Z,57.60
2018-09-26T06:10:00.974Z,57.60
2018-09-26T06:12:34.680Z,57.80
2018-09-26T06:15:06.028Z,57.80
2018-09-26T06:17:37.372Z,57.90
2018-09-26T06:20:08.412Z,58.20
2018-09-26T06:22:39.477Z,58.40
2018-09-26T06:25:10.750Z,58.10
2018-09-26T06:27:41.723Z,58.20
2018-09-26T06:30:12.857Z,58.50
2018-09-26T06:32:43.854Z,58.20
2018-09-26T06:35:14.693Z,58.00
2018-09-26T06:37:45.526Z,58.00
2018-09-26T06:40:16.804Z,57.90
2018-09-26T06:42:47.616Z,58.20
2018-09-26T06:45:18.789Z,58.10
2018-09-26T06:47:49.706Z,58.30
2018-09-26T06:50:21.283Z,58.30
2018-09-26T06:52:52.306Z,58.10
2018-09-26T06:55:23.329Z,58.30
2018-09-26T06:57:54.362Z,58.20
2018-09-26T07:00:25.517Z,58.30
2018-09-26T07:02:56.704Z,57.90
2018-09-26T07:05:27.664Z,58.10
2018-09-26T07:07:58.498Z,57.70
2018-09-26T07:10:31.102Z,57.30
2018-09-26T07:13:02.610Z,57.20
2018-09-26T07:15:33.349Z,57.20
2018-09-26T07:18:04.395Z,57.20
2018-09-26T07:20:35.175Z,57.30
2018-09-26T07:23:05.932Z,56.90
2018-09-26T07:25:36.865Z,56.90
2018-09-26T07:28:07.803Z,56.90
2018-09-26T07:30:38.846Z,56.40
2018-09-26T07:33:09.803Z,55.70
2018-09-26T07:35:41.117Z,55.30
2018-09-26T07:38:11.907Z,55.30
2018-09-26T07:40:42.693Z,55.70
2018-09-26T07:43:13.672Z,55.80
2018-09-26T07:45:44.731Z,55.70
2018-09-26T07:48:15.773Z,55.40
2018-09-26T07:50:46.991Z,55.10
2018-09-26T07:53:17.991Z,54.90
2018-09-26T07:55:49.106Z,54.90
2018-09-26T07:58:19.908Z,54.80
2018-09-26T08:00:50.634Z,54.70
2018-09-26T08:03:21.640Z,54.10
2018-09-26T08:05:52.649Z,54.00
2018-09-26T08:08:24.275Z,54.10
2018-09-26T08:10:56.403Z,53.60
2018-09-26T08:13:27.572Z,52.80
2018-09-26T08:15:58.268Z,52.90
2018-09-26T08:18:29.249Z,52.90
2018-09-26T08:21:01.115Z,52.80
2018-09-26T08:23:32.136Z,52.60
2018-09-26T08:26:03.170Z,51.60
2018-09-26T08:28:34.310Z,51.60
2018-09-26T08:31:05.237Z,52.00
2018-09-26T08:33:37.095Z,51.50
2018-09-26T08:36:07.836Z,51.60
2018-09-26T08:38:39.005Z,50.40
2018-09-26T08:41:09.886Z,50.10
2018-09-26T08:43:40.711Z,50.20
2018-09-26T08:46:11.986Z,50.10
2018-09-26T08:48:42.756Z,49.90
2018-09-26T08:51:13.730Z,50.30
2018-09-26T08:53:44.870Z,49.80
2018-09-26T08:56:16.117Z,49.80
2018-09-26T08:58:46.764Z,49.10
2018-09-26T09:01:22.566Z,48.90
2018-09-26T09:03:53.284Z,48.70
2018-09-26T09:06:24.269Z,48.50
2018-09-26T09:08:55.004Z,48.50
2018-09-26T09:11:26.344Z,48.30
2018-09-26T09:13:57.256Z,48.70
2018-09-26T09:16:28.447Z,48.20
2018-09-26T09:18:59.147Z,47.70
2018-09-26T09:21:30.139Z,46.90
2018-09-26T09:24:01.127Z,46.80
2018-09-26T09:26:32.176Z,47.00
2018-09-26T09:29:02.856Z,46.80
2018-09-26T09:31:33.554Z,46.90
2018-09-26T09:34:04.965Z,46.50
2018-09-26T09:36:35.673Z,46.70
2018-09-26T09:39:09.153Z,45.90
2018-09-26T09:41:39.779Z,46.30
2018-09-26T09:44:11.400Z,45.30
2018-09-26T09:46:42.444Z,45.00
2018-09-26T09:49:13.295Z,45.30
2018-09-26T09:51:44.104Z,45.20
2018-09-26T09:54:15.084Z,45.30
2018-09-26T09:56:46.022Z,45.90
2018-09-26T09:59:17.345Z,45.50
2018-09-26T10:01:48.060Z,45.00
2018-09-26T10:04:18.805Z,44.10
2018-09-26T10:06:50.587Z,44.60
2018-09-26T10:09:21.496Z,44.20
2018-09-26T10:11:58.842Z,44.30
2018-09-26T10:14:30.852Z,44.30
2018-09-26T10:17:02.259Z,44.10
2018-09-26T10:19:33.498Z,43.50
2018-09-26T10:22:05.970Z,43.80
2018-09-26T10:24:37.802Z,43.80
2018-09-26T10:27:09.596Z,43.40
2018-09-26T10:29:40.320Z,43.30
2018-09-26T10:32:11.618Z,42.80
2018-09-26T10:34:42.898Z,43.00
2018-09-26T10:37:14.104Z,43.40
2018-09-26T10:39:44.903Z,43.20
2018-09-26T10:42:15.813Z,43.10
2018-09-26T10:44:46.478Z,42.50
2018-09-26T10:47:17.211Z,42.70
2018-09-26T10:49:48.563Z,42.80
2018-09-26T10:52:19.691Z,43.00
2018-09-26T10:54:50.359Z,43.10
2018-09-26T10:57:21.301Z,42.00
2018-09-26T10:59:52.888Z,42.00
2018-09-26T11:02:23.839Z,42.00
2018-09-26T11:04:54.870Z,41.90
2018-09-26T11:07:25.870Z,42.10
2018-09-26T11:09:57.222Z,41.50
2018-09-26T11:12:27.981Z,41.60
2018-09-26T11:14:59.994Z,41.50
2018-09-26T11:17:30.718Z,41.50
2018-09-26T11:20:01.655Z,41.50
2018-09-26T11:22:33.092Z,41.30
2018-09-26T11:25:04.039Z,41.40
2018-09-26T11:27:35.119Z,40.90
2018-09-26T11:30:05.778Z,41.40
2018-09-26T11:32:36.589Z,41.40
2018-09-26T11:35:07.392Z,41.40
2018-09-26T11:37:38.409Z,41.50
2018-09-26T11:40:09.581Z,41.30
2018-09-26T11:42:40.684Z,41.50
2018-09-26T11:45:11.475Z,41.20
2018-09-26T11:47:42.265Z,41.30
2018-09-26T11:50:13.260Z,41.50
2018-09-26T11:52:44.297Z,41.20
2018-09-26T11:55:15.330Z,41.50
2018-09-26T11:57:46.353Z,41.60
2018-09-26T12:00:16.998Z,41.50
2018-09-26T12:02:48.082Z,41.10
2018-09-26T12:05:19.109Z,41.10
2018-09-26T12:07:49.994Z,40.20
2018-09-26T12:10:20.948Z,40.30
2018-09-26T12:12:52.690Z,40.70
2018-09-26T12:15:23.614Z,40.70
2018-09-26T12:17:54.442Z,40.80
2018-09-26T12:20:25.432Z,40.90
2018-09-26T12:22:56.367Z,40.60
2018-09-26T12:25:27.278Z,41.00
2018-09-26T12:27:58.724Z,41.20
2018-09-26T12:30:29.788Z,40.20
2018-09-26T12:33:00.783Z,39.90
2018-09-26T12:35:31.546Z,40.50
2018-09-26T12:38:02.370Z,41.30
2018-09-26T12:40:33.087Z,40.70
2018-09-26T12:43:03.866Z,40.50
2018-09-26T12:45:34.863Z,40.60
2018-09-26T12:48:06.233Z,41.30
2018-09-26T12:50:37.292Z,41.30
2018-09-26T12:53:13.288Z,40.80
2018-09-26T12:55:44.679Z,40.50
2018-09-26T12:58:15.691Z,40.20
2018-09-26T13:00:46.808Z,40.40
2018-09-26T13:03:17.791Z,41.00
2018-09-26T13:05:48.986Z,40.30
2018-09-26T13:08:20.643Z,40.50
2018-09-26T13:10:52.835Z,40.60
2018-09-26T13:13:26.540Z,40.20
2018-09-26T13:15:57.881Z,40.60
2018-09-26T13:18:28.630Z,40.50
2018-09-26T13:20:59.504Z,40.40
2018-09-26T13:23:30.702Z,40.20
2018-09-26T13:26:01.632Z,40.70
2018-09-26T13:28:33.256Z,40.80
2018-09-26T13:31:04.105Z,41.60
2018-09-26T13:33:34.947Z,41.10
2018-09-26T13:36:05.923Z,40.70
2018-09-26T13:38:36.812Z,40.40
2018-09-26T13:41:08.290Z,40.60
2018-09-26T13:43:38.990Z,40.10
2018-09-26T13:46:10.003Z,41.10
2018-09-26T13:48:40.804Z,40.70
2018-09-26T13:51:11.474Z,40.80
2018-09-26T13:53:42.379Z,40.80
2018-09-26T13:56:13.287Z,41.00
2018-09-26T13:58:44.391Z,40.30
2018-09-26T14:01:15.296Z,40.60
2018-09-26T14:03:45.985Z,40.60
2018-09-26T14:06:16.921Z,40.40
2018-09-26T14:08:47.804Z,41.10
2018-09-26T14:11:18.629Z,41.60
2018-09-26T14:13:49.442Z,41.20
2018-09-26T14:16:20.589Z,40.80
2018-09-26T14:18:51.714Z,40.50
2018-09-26T14:21:34.371Z,40.00
2018-09-26T14:24:05.576Z,39.90
2018-09-26T14:26:37.059Z,39.80
2018-09-26T14:29:08.338Z,40.60
2018-09-26T14:31:39.322Z,41.00
2018-09-26T14:34:11.066Z,41.10
2018-09-26T14:36:41.861Z,40.70
2018-09-26T14:39:12.933Z,41.20
2018-09-26T14:41:44.219Z,40.80
2018-09-26T14:44:15.098Z,40.40
2018-09-26T14:46:46.742Z,40.50
2018-09-26T14:49:17.837Z,40.00
2018-09-26T14:51:49.282Z,40.20
2018-09-26T14:54:20.438Z,40.00
2018-09-26T14:56:51.265Z,40.20
2018-09-26T14:59:22.488Z,39.80
2018-09-26T15:01:54.076Z,39.60
2018-09-26T15:04:24.916Z,40.40
2018-09-26T15:06:55.782Z,41.10
2018-09-26T15:09:26.970Z,41.00
2018-09-26T15:11:58.293Z,40.90
2018-09-26T15:14:29.491Z,41.40
2018-09-26T15:17:00.697Z,40.40
2018-09-26T15:19:31.764Z,39.60
2018-09-26T15:22:02.633Z,39.40
2018-09-26T15:24:34.172Z,39.30
2018-09-26T15:27:05.330Z,40.60
2018-09-26T15:29:37.187Z,40.50
2018-09-26T15:32:08.179Z,40.40
2018-09-26T15:34:40.139Z,40.40
2018-09-26T15:37:12.451Z,40.30
2018-09-26T15:39:43.338Z,40.40
2018-09-26T15:42:14.721Z,40.70
2018-09-26T15:44:45.726Z,40.20
2018-09-26T15:47:19.163Z,40.10
2018-09-26T15:49:50.744Z,40.20
2018-09-26T15:52:21.622Z,40.10
2018-09-26T15:54:52.853Z,40.60
2018-09-26T15:57:23.911Z,41.10
2018-09-26T15:59:55.419Z,40.80
2018-09-26T16:02:26.293Z,41.60
2018-09-26T16:04:57.181Z,40.50
2018-09-26T16:07:27.754Z,40.30
2018-09-26T16:09:59.045Z,40.20
2018-09-26T16:12:30.107Z,41.00
2018-09-26T16:15:01.332Z,40.60
2018-09-26T16:17:32.070Z,40.10
2018-09-26T16:20:02.778Z,40.80
2018-09-26T16:22:33.558Z,41.80
2018-09-26T16:25:04.362Z,42.30
2018-09-26T16:27:35.434Z,42.10
2018-09-26T16:30:06.417Z,42.60
2018-09-26T16:32:37.692Z,42.80
2018-09-26T16:35:09.318Z,42.80
2018-09-26T16:37:40.866Z,43.10
2018-09-26T16:40:11.698Z,43.20
2018-09-26T16:42:42.737Z,43.40
2018-09-26T16:45:14.244Z,43.30
2018-09-26T16:47:46.912Z,43.50
2018-09-26T16:50:18.546Z,43.50
2018-09-26T16:52:49.796Z,43.50
2018-09-26T16:55:22.909Z,43.70
2018-09-26T16:57:53.833Z,44.00
2018-09-26T17:00:24.553Z,44.10
2018-09-26T17:02:58.177Z,44.30
2018-09-26T17:05:30.172Z,44.50
2018-09-26T17:08:01.247Z,44.80
2018-09-26T17:10:32.369Z,44.40
2018-09-26T17:13:03.202Z,45.00
2018-09-26T17:15:34.146Z,44.90
2018-09-26T17:18:04.872Z,45.20
2018-09-26T17:20:36.942Z,45.30
2018-09-26T17:23:07.679Z,45.70
2018-09-26T17:25:38.548Z,45.50
2018-09-26T17:28:09.491Z,45.50
2018-09-26T17:30:40.538Z,45.60
2018-09-26T17:33:11.035Z,45.50
2018-09-26T17:35:42.507Z,46.20
2018-09-26T17:38:13.440Z,45.70
2018-09-26T17:40:45.010Z,46.10
2018-09-26T17:43:15.549Z,46.30
2018-09-26T17:45:46.395Z,46.40
2018-09-26T17:48:17.260Z,46.30
2018-09-26T17:50:48.239Z,46.10
2018-09-26T17:53:18.887Z,46.20
2018-09-26T17:55:49.570Z,46.60
2018-09-26T17:58:20.492Z,46.70
2018-09-26T18:00:51.832Z,46.80
2018-09-26T18:03:22.748Z,46.80
2018-09-26T18:05:53.826Z,46.80
2018-09-26T18:08:24.471Z,47.10
2018-09-26T18:10:55.024Z,46.90
2018-09-26T18:13:25.845Z,47.00
2018-09-26T18:15:57.007Z,47.40
2018-09-26T18:18:28.357Z,50.00
2018-09-26T18:20:59.341Z,48.80
2018-09-26T18:23:30.116Z,48.50
2018-09-26T18:26:02.175Z,48.60
2018-09-26T18:28:32.874Z,48.40
2018-09-26T18:31:03.880Z,48.60
2018-09-26T18:33:37.466Z,48.40
2018-09-26T18:36:09.740Z,48.80
2018-09-26T18:38:40.590Z,48.10
2018-09-26T18:41:11.663Z,48.40
2018-09-26T18:43:42.298Z,48.50
2018-09-26T18:46:13.483Z,48.50
2018-09-26T18:48:45.355Z,48.90
2018-09-26T18:51:16.429Z,48.90
2018-09-26T18:53:47.205Z,49.00
2018-09-26T18:56:17.737Z,49.00
2018-09-26T18:58:50.360Z,49.20
2018-09-26T19:01:21.462Z,49.20
2018-09-26T19:03:52.018Z,49.50
2018-09-26T19:06:22.932Z,49.60
2018-09-26T19:08:53.482Z,49.70
2018-09-26T19:11:25.322Z,49.80
2018-09-26T19:13:56.868Z,49.80
2018-09-26T19:16:27.842Z,49.90
2018-09-26T19:18:58.813Z,49.60
2018-09-26T19:21:29.623Z,49.40
2018-09-26T19:24:00.392Z,49.40
2018-09-26T19:26:31.215Z,49.60
2018-09-26T19:29:02.052Z,49.50
2018-09-26T19:31:32.817Z,49.50
2018-09-26T19:34:03.543Z,49.60
2018-09-26T19:36:34.448Z,50.00
2018-09-26T19:39:08.340Z,50.20
2018-09-26T19:41:39.265Z,50.10
2018-09-26T19:44:10.079Z,50.40
2018-09-26T19:46:40.639Z,50.40
2018-09-26T19:49:11.394Z,50.60
2018-09-26T19:51:42.215Z,50.50
2018-09-26T19:54:12.995Z,50.60
2018-09-26T19:56:44.218Z,50.50
2018-09-26T19:59:15.944Z,50.20
2018-09-26T20:01:47.007Z,50.40
2018-09-26T20:04:17.648Z,50.70
2018-09-26T20:06:48.626Z,52.50
2018-09-26T20:09:20.103Z,51.40
2018-09-26T20:11:51.924Z,51.10
2018-09-26T20:14:23.126Z,51.30
2018-09-26T20:16:54.393Z,51.20
2018-09-26T20:19:25.410Z,51.40
2018-09-26T20:21:56.936Z,51.30
2018-09-26T20:24:29.158Z,51.40
2018-09-26T20:27:00.571Z,51.60
2018-09-26T20:29:32.095Z,51.70
2018-09-26T20:32:03.161Z,51.80
2018-09-26T20:34:34.441Z,51.90
2018-09-26T20:37:05.589Z,51.90
2018-09-26T20:39:37.828Z,52.10
2018-09-26T20:42:11.919Z,51.70
2018-09-26T20:44:42.578Z,51.50
2018-09-26T20:47:14.344Z,51.80
2018-09-26T20:49:45.339Z,51.90
2018-09-26T20:52:16.317Z,51.90
2018-09-26T20:54:47.356Z,52.80
2018-09-26T20:57:18.419Z,52.20
2018-09-26T20:59:49.231Z,52.20
2018-09-26T21:02:20.123Z,52.50
2018-09-26T21:04:51.057Z,52.50
2018-09-26T21:07:22.042Z,52.60
2018-09-26T21:09:53.078Z,52.60
2018-09-26T21:12:23.777Z,52.70
2018-09-26T21:14:54.466Z,52.60
2018-09-26T21:17:25.830Z,52.50
2018-09-26T21:19:56.695Z,52.30
2018-09-26T21:22:27.651Z,52.50
2018-09-26T21:24:58.942Z,52.40
2018-09-26T21:27:30.077Z,52.40
2018-09-26T21:30:01.146Z,52.40
2018-09-26T21:32:32.118Z,52.60
2018-09-26T21:35:03.072Z,52.70
2018-09-26T21:37:33.771Z,52.60
2018-09-26T21:40:04.775Z,53.30
2018-09-26T21:42:35.625Z,52.80
2018-09-26T21:45:06.938Z,52.90
2018-09-26T21:47:37.956Z,53.10
2018-09-26T21:50:09.050Z,53.10
2018-09-26T21:52:40.982Z,53.40
2018-09-26T21:55:12.357Z,53.40
2018-09-26T21:57:43.046Z,53.30
2018-09-26T22:00:13.790Z,53.70
2018-09-26T22:02:44.606Z,53.60
2018-09-26T22:05:15.538Z,53.70
2018-09-26T22:07:46.353Z,53.50
2018-09-26T22:10:17.131Z,53.40
2018-09-26T22:12:48.587Z,53.30
2018-09-26T22:15:24.776Z,53.40
2018-09-26T22:17:55.679Z,53.40
2018-09-26T22:20:27.686Z,53.60
2018-09-26T22:22:58.701Z,53.80
2018-09-26T22:25:30.450Z,53.80
2018-09-26T22:28:01.550Z,53.90
2018-09-26T22:30:32.567Z,54.00
2018-09-26T22:33:03.628Z,54.10
2018-09-26T22:35:34.779Z,54.20
2018-09-26T22:38:05.649Z,54.30
2018-09-26T22:40:36.926Z,54.40
2018-09-26T22:43:08.065Z,54.30
2018-09-26T22:45:39.289Z,54.50
2018-09-26T22:48:10.182Z,54.60
2018-09-26T22:50:40.962Z,54.60
2018-09-26T22:53:11.754Z,54.50
2018-09-26T22:55:42.650Z,54.60
2018-09-26T22:58:13.758Z,54.70
2018-09-26T23:00:44.799Z,54.70
2018-09-26T23:03:15.752Z,54.60
2018-09-26T23:05:46.535Z,54.60
2018-09-26T23:08:17.718Z,54.60
2018-09-26T23:10:49.253Z,54.40
2018-09-26T23:13:21.317Z,54.60
2018-09-26T23:15:52.101Z,54.50
2018-09-26T23:18:24.002Z,54.30
2018-09-26T23:20:55.593Z,54.40
2018-09-26T23:23:26.662Z,54.40
2018-09-26T23:25:58.093Z,54.40
2018-09-26T23:28:28.803Z,54.30
2018-09-26T23:30:59.846Z,54.40
2018-09-26T23:33:31.051Z,54.30
2018-09-26T23:36:02.172Z,54.10
2018-09-26T23:38:33.310Z,54.20
2018-09-26T23:41:04.223Z,54.20
2018-09-26T23:43:35.409Z,54.30
2018-09-26T23:46:06.220Z,54.30
2018-09-26T23:48:37.412Z,54.40
2018-09-26T23:51:08.212Z,54.70
2018-09-26T23:53:39.087Z,55.60
2018-09-26T23:56:10.089Z,54.90
2018-09-26T23:58:40.989Z,54.70
